Terminal Aerodrome Forecast
Issued by NWS

Home | Current Version | Previous Version | Graphics & Text | Print | Product List | Glossary On
Versions: 1 2 3 4 5 6 7 8 9 10 11 12 13 14 15 16 17 18 19
000
FTUS43 KBIS 241136
TAFMOT
TAF
KMOT 241136Z 2412/2512 04009KT 5SM -SN BR SCT005 OVC015
     FM241500 03011KT 2SM -SN BR SCT008 OVC010
     FM241700 03012KT 5SM -SNRA BR OVC008
     FM242200 01011KT P6SM OVC010
     FM250200 01010KT P6SM OVC008=

USA.gov is the U.S. government's official web portal to all federal, state and local government web resources and services.